Terminal Aerodrome Forecast
Issued by NWS Bismarck, ND

Home | Current Version | Previous Version | Graphics & Text | Print | Product List | Glossary On
Versions: 1 2 3 4 5 6 7 8 9 10 11 12 13 14 15 16 17 18 19 20 21
000
FTUS43 KBIS 272300
TAFBIS
TAF
KBIS 272332Z 2800/2824 04013KT P6SM BKN070
     FM281400 04016KT P6SM OVC030=

USA.gov is the U.S. government's official web portal to all federal, state and local government web resources and services.